Terminal Aerodrome Forecast
Issued by NWS

Current Version | Previous Version | Text Only | Print | Product List | Glossary On
Versions: 1 2 3 4 5 6 7 8 9 10 11 12 13 14 15 16 17 18 19 20 21 22 23 24 25 26 27 28
000
FTUS41 KBGM 241100
TAFITH
TAF
KITH 241133Z 2412/2512 32008KT P6SM FEW020 BKN070
      TEMPO 2412/2414 BKN009
     FM241700 31010KT P6SM FEW080
     FM242200 30005KT P6SM SKC
     FM250900 27004KT P6SM SCT030=

USA.gov is the U.S. government's official web portal to all federal, state and local government web resources and services.